createdAt,value
2023-04-28T00:00:19.067Z,88.57
2023-04-28T00:01:18.992Z,88.85
2023-04-28T00:02:19.104Z,89.04
2023-04-28T00:03:19.052Z,89.28
2023-04-28T00:04:19.408Z,89.09
2023-04-28T00:05:19.095Z,89.14
2023-04-28T00:06:18.936Z,89.18
2023-04-28T00:07:18.922Z,90.33
2023-04-28T00:08:18.944Z,90.70
2023-04-28T00:09:18.902Z,91.37
2023-04-28T00:10:18.885Z,90.33
2023-04-28T00:11:18.885Z,89.47
2023-04-28T00:12:18.914Z,88.85
2023-04-28T00:13:18.861Z,89.33
2023-04-28T00:14:19.105Z,90.23
2023-04-28T00:15:18.843Z,91.13
2023-04-28T00:16:18.902Z,90.19
2023-04-28T00:17:18.834Z,90.00
2023-04-28T00:18:18.885Z,90.75
2023-04-28T00:19:18.794Z,90.09
2023-04-28T00:20:18.789Z,90.94
2023-04-28T00:21:18.781Z,91.61
2023-04-28T00:22:18.763Z,91.89
2023-04-28T00:23:18.745Z,92.46
2023-04-28T00:24:18.739Z,92.56
2023-04-28T00:25:18.752Z,92.66
2023-04-28T00:26:18.760Z,93.23
2023-04-28T00:27:18.705Z,91.80
2023-04-28T00:28:32.889Z,91.80
2023-04-28T00:29:18.696Z,93.13
2023-04-28T00:30:18.700Z,92.46
2023-04-28T00:31:18.707Z,91.61
2023-04-28T00:32:18.635Z,91.42
2023-04-28T00:33:18.661Z,91.61
2023-04-28T00:34:18.736Z,91.52
2023-04-28T00:35:18.622Z,91.61
2023-04-28T00:36:18.842Z,91.61
2023-04-28T00:37:18.574Z,91.61
2023-04-28T00:38:18.572Z,91.71
2023-04-28T00:39:18.608Z,91.42
2023-04-28T00:40:18.554Z,92.18
2023-04-28T00:41:18.522Z,92.66
2023-04-28T00:42:18.543Z,92.56
2023-04-28T00:43:18.526Z,92.08
2023-04-28T00:44:18.545Z,91.61
2023-04-28T00:45:18.492Z,91.71
2023-04-28T00:46:18.625Z,92.94
2023-04-28T00:47:18.480Z,93.41
2023-04-28T00:48:18.455Z,93.89
2023-04-28T00:49:18.490Z,93.70
2023-04-28T00:50:18.461Z,93.79
2023-04-28T00:51:18.436Z,94.65
2023-04-28T00:52:18.403Z,94.74
2023-04-28T00:53:18.413Z,94.84
2023-04-28T00:54:18.615Z,95.41
2023-04-28T00:55:18.404Z,94.74
2023-04-28T00:56:18.349Z,93.99
2023-04-28T00:57:18.366Z,92.56
2023-04-28T00:58:18.364Z,92.85
2023-04-28T00:59:18.393Z,93.04
2023-04-28T01:00:18.346Z,92.94
2023-04-28T01:01:18.378Z,92.66
2023-04-28T01:02:18.578Z,93.70
2023-04-28T01:03:18.480Z,93.70
2023-04-28T01:04:18.580Z,93.79
2023-04-28T01:05:18.263Z,94.56
2023-04-28T01:06:18.234Z,94.93
2023-04-28T01:07:18.238Z,94.56
2023-04-28T01:08:18.228Z,94.46
2023-04-28T01:09:18.220Z,94.18
2023-04-28T01:10:18.423Z,93.89
2023-04-28T01:11:18.187Z,93.32
2023-04-28T01:12:18.187Z,93.04
2023-04-28T01:13:18.160Z,93.32
2023-04-28T01:14:18.326Z,93.99
2023-04-28T01:15:18.140Z,94.56
2023-04-28T01:16:18.141Z,94.65
2023-04-28T01:17:18.140Z,93.23
2023-04-28T01:18:18.145Z,92.75
2023-04-28T01:19:18.097Z,92.27
2023-04-28T01:20:18.109Z,92.18
2023-04-28T01:21:18.078Z,93.32
2023-04-28T01:22:18.076Z,94.27
2023-04-28T01:23:18.054Z,94.56
2023-04-28T01:24:18.292Z,94.65
2023-04-28T01:25:18.023Z,94.56
2023-04-28T01:26:18.078Z,94.93
2023-04-28T01:27:18.031Z,94.56
2023-04-28T01:28:18.008Z,94.37
2023-04-28T01:29:17.973Z,94.65
2023-04-28T01:30:17.963Z,95.12
2023-04-28T01:31:18.000Z,95.79
2023-04-28T01:32:17.965Z,95.70
2023-04-28T01:33:18.137Z,95.89
2023-04-28T01:34:18.199Z,95.22
2023-04-28T01:35:17.901Z,94.27
2023-04-28T01:36:17.910Z,94.74
2023-04-28T01:37:17.986Z,94.84
2023-04-28T01:38:17.911Z,94.56
2023-04-28T01:39:17.939Z,94.74
2023-04-28T01:40:17.894Z,94.93
2023-04-28T01:41:17.913Z,94.84
2023-04-28T01:42:17.857Z,94.84
2023-04-28T01:43:17.866Z,95.12
2023-04-28T01:44:18.132Z,95.70
2023-04-28T01:45:17.799Z,95.12
2023-04-28T01:46:17.879Z,95.79
2023-04-28T01:47:17.812Z,95.70
2023-04-28T01:48:17.755Z,95.60
2023-04-28T01:49:17.787Z,95.70
2023-04-28T01:50:17.814Z,95.03
2023-04-28T01:51:17.753Z,94.93
2023-04-28T01:52:17.982Z,95.41
2023-04-28T01:53:17.715Z,95.60
2023-04-28T01:54:17.936Z,95.79
2023-04-28T01:55:17.681Z,95.70
2023-04-28T01:56:17.692Z,96.17
2023-04-28T01:57:17.902Z,96.74
2023-04-28T01:58:17.662Z,96.65
2023-04-28T01:59:17.649Z,96.45
2023-04-28T02:00:17.630Z,97.03
2023-04-28T02:01:17.620Z,97.50
2023-04-28T02:02:17.651Z,97.88
2023-04-28T02:03:17.745Z,97.83
2023-04-28T02:04:17.944Z,97.83
2023-04-28T02:05:17.595Z,97.64
2023-04-28T02:06:17.577Z,97.74
2023-04-28T02:07:17.536Z,97.45
2023-04-28T02:08:17.549Z,97.45
2023-04-28T02:09:17.531Z,97.83
2023-04-28T02:10:17.517Z,98.12
2023-04-28T02:11:17.490Z,98.50
2023-04-28T02:12:17.707Z,98.69
2023-04-28T02:13:17.473Z,98.40
2023-04-28T02:14:17.841Z,98.40
2023-04-28T02:15:17.427Z,97.92
2023-04-28T02:16:17.444Z,97.83
2023-04-28T02:17:17.416Z,97.55
2023-04-28T02:18:17.415Z,97.07
2023-04-28T02:19:17.393Z,97.45
2023-04-28T02:20:17.364Z,98.40
2023-04-28T02:21:17.359Z,98.21
2023-04-28T02:22:17.391Z,98.79
2023-04-28T02:23:17.344Z,98.40
2023-04-28T02:24:17.556Z,98.88
2023-04-28T02:25:17.312Z,99.26
2023-04-28T02:26:17.317Z,99.64
2023-04-28T02:27:17.279Z,99.99
2023-04-28T02:28:17.267Z,99.99
2023-04-28T02:29:17.269Z,99.99
2023-04-28T02:30:17.283Z,99.99
2023-04-28T02:31:17.262Z,99.99
2023-04-28T02:32:17.231Z,99.99
2023-04-28T02:33:17.214Z,99.35
2023-04-28T02:34:17.454Z,99.99
2023-04-28T02:35:17.212Z,99.99
2023-04-28T02:36:17.197Z,99.99
2023-04-28T02:37:17.190Z,99.99
2023-04-28T02:38:17.176Z,99.99
2023-04-28T02:39:17.140Z,99.99
2023-04-28T02:40:17.147Z,99.99
2023-04-28T02:41:17.117Z,99.99
2023-04-28T02:42:17.115Z,99.99
2023-04-28T02:43:17.094Z,99.99
2023-04-28T02:44:17.246Z,99.99
2023-04-28T02:45:17.082Z,99.99
2023-04-28T02:46:17.129Z,99.99
2023-04-28T02:47:17.083Z,99.99
2023-04-28T02:48:17.047Z,99.99
2023-04-28T02:49:17.067Z,99.99
2023-04-28T02:50:17.050Z,99.99
2023-04-28T02:51:17.021Z,99.99
2023-04-28T02:52:16.999Z,99.99
2023-04-28T02:53:16.990Z,99.99
2023-04-28T02:54:17.163Z,99.99
2023-04-28T02:55:16.974Z,99.99
2023-04-28T02:56:16.967Z,99.99
2023-04-28T02:57:16.952Z,99.99
2023-04-28T02:58:16.938Z,99.99
2023-04-28T02:59:16.915Z,99.99
2023-04-28T03:00:16.911Z,99.99
2023-04-28T03:01:16.970Z,99.99
2023-04-28T03:02:16.919Z,99.99
2023-04-28T03:03:17.038Z,99.99
2023-04-28T03:04:17.292Z,99.99
2023-04-28T03:05:16.844Z,99.99
2023-04-28T03:06:16.835Z,99.99
2023-04-28T03:07:17.059Z,99.99
2023-04-28T03:08:16.823Z,99.99
2023-04-28T03:09:16.804Z,99.99
2023-04-28T03:10:16.823Z,99.99
2023-04-28T03:11:16.771Z,99.99
2023-04-28T03:12:16.763Z,99.99
2023-04-28T03:13:16.761Z,99.99
2023-04-28T03:14:16.966Z,99.99
2023-04-28T03:15:16.742Z,99.99
2023-04-28T03:16:16.799Z,99.99
2023-04-28T03:17:16.694Z,99.99
2023-04-28T03:18:16.685Z,99.99
2023-04-28T03:19:16.678Z,99.99
2023-04-28T03:20:16.665Z,99.99
2023-04-28T03:21:16.662Z,99.99
2023-04-28T03:22:16.644Z,99.99
2023-04-28T03:23:16.630Z,99.99
2023-04-28T03:24:16.890Z,99.99
2023-04-28T03:25:16.642Z,99.99
2023-04-28T03:26:16.627Z,99.99
2023-04-28T03:27:16.583Z,99.99
2023-04-28T03:28:16.555Z,99.99
2023-04-28T03:29:16.547Z,99.99
2023-04-28T03:30:16.594Z,99.99
2023-04-28T03:31:16.582Z,99.99
2023-04-28T03:32:16.817Z,99.99
2023-04-28T03:33:16.546Z,99.99
2023-04-28T03:34:16.773Z,99.99
2023-04-28T03:35:16.484Z,99.99
2023-04-28T03:36:16.539Z,99.99
2023-04-28T03:37:16.527Z,99.99
2023-04-28T03:38:16.464Z,99.99
2023-04-28T03:39:16.439Z,99.99
2023-04-28T03:40:16.415Z,99.99
2023-04-28T03:41:16.420Z,99.99
2023-04-28T03:42:16.426Z,99.99
2023-04-28T03:43:16.388Z,99.99
2023-04-28T03:44:16.614Z,99.99
2023-04-28T03:45:16.376Z,99.99
2023-04-28T03:46:16.412Z,99.99
2023-04-28T03:47:16.367Z,99.99
2023-04-28T03:48:16.364Z,99.99
2023-04-28T03:49:16.305Z,99.99
2023-04-28T03:50:16.306Z,99.99
2023-04-28T03:51:16.300Z,99.99
2023-04-28T03:52:16.309Z,99.99
2023-04-28T03:53:16.268Z,99.99
2023-04-28T03:54:16.685Z,99.99
2023-04-28T03:55:16.253Z,99.99
2023-04-28T03:56:16.247Z,99.99
2023-04-28T03:57:16.248Z,99.99
2023-04-28T03:58:16.239Z,99.99
2023-04-28T03:59:16.208Z,99.99
2023-04-28T04:00:16.192Z,99.99
2023-04-28T04:01:16.184Z,99.99
2023-04-28T04:02:16.314Z,99.99
2023-04-28T04:03:16.464Z,99.99
2023-04-28T04:04:16.491Z,99.99
2023-04-28T04:05:16.249Z,99.99
2023-04-28T04:06:16.114Z,99.99
2023-04-28T04:07:16.108Z,99.99
2023-04-28T04:08:16.100Z,99.99
2023-04-28T04:09:16.097Z,99.99
2023-04-28T04:10:16.074Z,99.99
2023-04-28T04:11:16.060Z,99.99
2023-04-28T04:12:16.044Z,99.99
2023-04-28T04:13:16.035Z,99.99
2023-04-28T04:14:16.263Z,99.99
2023-04-28T04:15:16.012Z,99.99
2023-04-28T04:16:16.193Z,99.99
2023-04-28T04:17:15.996Z,99.99
2023-04-28T04:18:15.973Z,99.99
2023-04-28T04:19:15.973Z,99.99
2023-04-28T04:20:15.955Z,99.99
2023-04-28T04:21:15.931Z,99.99
2023-04-28T04:22:15.913Z,99.99
2023-04-28T04:23:15.912Z,99.99
2023-04-28T04:24:16.205Z,99.99
2023-04-28T04:25:15.882Z,99.99
2023-04-28T04:26:15.889Z,99.99
2023-04-28T04:27:16.062Z,99.99
2023-04-28T04:28:15.843Z,99.99
2023-04-28T04:29:15.839Z,99.99
2023-04-28T04:30:15.853Z,99.99
2023-04-28T04:31:15.886Z,99.99
2023-04-28T04:32:15.819Z,99.99
2023-04-28T04:33:15.803Z,99.99
2023-04-28T04:34:16.115Z,99.99
2023-04-28T04:35:15.805Z,99.99
2023-04-28T04:36:15.750Z,99.99
2023-04-28T04:37:15.742Z,99.99
2023-04-28T04:38:15.728Z,99.99
2023-04-28T04:39:15.720Z,99.99
2023-04-28T04:40:15.704Z,99.99
2023-04-28T04:41:15.690Z,99.99
2023-04-28T04:42:24.761Z,99.99
2023-04-28T04:43:15.681Z,99.99
2023-04-28T04:44:15.920Z,99.99
2023-04-28T04:45:15.654Z,99.99
2023-04-28T04:46:15.668Z,99.99
2023-04-28T04:47:15.628Z,99.99
2023-04-28T04:48:15.641Z,99.99
2023-04-28T04:49:15.601Z,99.99
2023-04-28T04:50:15.582Z,99.99
2023-04-28T04:51:15.568Z,99.99
2023-04-28T04:52:15.556Z,99.99
2023-04-28T04:53:16.551Z,99.99
2023-04-28T04:54:15.638Z,99.99
2023-04-28T04:55:15.513Z,99.99
2023-04-28T04:56:15.503Z,99.99
2023-04-28T04:57:15.502Z,99.99
2023-04-28T04:58:15.479Z,99.99
2023-04-28T04:59:15.459Z,99.99
2023-04-28T05:00:15.456Z,99.97
2023-04-28T05:01:15.460Z,99.40
2023-04-28T05:02:15.474Z,98.83
2023-04-28T05:03:15.518Z,99.40
2023-04-28T05:04:15.838Z,98.55
2023-04-28T05:05:48.621Z,98.55
2023-04-28T05:06:15.441Z,98.45
2023-04-28T05:07:15.383Z,97.88
2023-04-28T05:08:15.368Z,98.26
2023-04-28T05:09:15.357Z,98.36
2023-04-28T05:10:15.348Z,98.07
2023-04-28T05:11:15.332Z,98.45
2023-04-28T05:12:15.330Z,96.93
2023-04-28T05:13:15.298Z,97.50
2023-04-28T05:14:15.558Z,97.69
2023-04-28T05:15:15.294Z,97.78
2023-04-28T05:16:15.293Z,98.45
2023-04-28T05:17:15.256Z,98.64
2023-04-28T05:18:15.382Z,97.69
2023-04-28T05:19:15.245Z,98.45
2023-04-28T05:20:15.223Z,99.02
2023-04-28T05:21:15.249Z,99.69
2023-04-28T05:22:15.212Z,98.45
2023-04-28T05:23:15.193Z,98.64
2023-04-28T05:24:15.450Z,99.02
2023-04-28T05:25:15.185Z,99.21
2023-04-28T05:26:15.171Z,99.30
2023-04-28T05:27:15.350Z,99.74
2023-04-28T05:28:15.157Z,99.55
2023-04-28T05:29:15.127Z,99.64
2023-04-28T05:30:15.126Z,99.45
2023-04-28T05:31:15.126Z,97.93
2023-04-28T05:32:15.223Z,97.55
2023-04-28T05:33:15.090Z,97.93
2023-04-28T05:34:15.354Z,97.45
2023-04-28T05:35:15.090Z,97.55
2023-04-28T05:36:15.091Z,98.41
2023-04-28T05:37:15.014Z,98.88
2023-04-28T05:38:15.024Z,99.74
2023-04-28T05:39:14.987Z,97.27
2023-04-28T05:40:14.988Z,97.45
2023-04-28T05:41:14.999Z,98.12
2023-04-28T05:42:14.981Z,96.89
2023-04-28T05:43:14.994Z,97.36
2023-04-28T05:44:15.242Z,97.55
2023-04-28T05:45:14.936Z,97.08
2023-04-28T05:46:29.246Z,98.03
2023-04-28T05:47:14.919Z,97.36
2023-04-28T05:48:14.891Z,97.93
2023-04-28T05:49:14.926Z,97.83
2023-04-28T05:50:14.922Z,98.50
2023-04-28T05:51:14.878Z,98.31
2023-04-28T05:52:14.836Z,98.60
2023-04-28T05:53:14.822Z,98.22
2023-04-28T05:54:14.995Z,98.97
2023-04-28T05:55:14.800Z,98.97
2023-04-28T05:56:14.839Z,98.60
2023-04-28T05:57:14.774Z,98.50
2023-04-28T05:58:14.811Z,99.36
2023-04-28T05:59:14.886Z,98.69
2023-04-28T06:00:14.785Z,98.36
2023-04-28T06:01:14.758Z,97.93
2023-04-28T06:02:15.360Z,98.17
2023-04-28T06:03:14.913Z,97.79
2023-04-28T06:04:14.928Z,96.74
2023-04-28T06:05:14.894Z,96.55
2023-04-28T06:06:14.901Z,96.94
2023-04-28T06:07:14.663Z,97.88
2023-04-28T06:08:14.677Z,98.55
2023-04-28T06:09:14.938Z,98.55
2023-04-28T06:10:14.689Z,97.79
2023-04-28T06:11:14.621Z,97.50
2023-04-28T06:12:14.626Z,96.74
2023-04-28T06:13:14.951Z,96.94
2023-04-28T06:14:14.889Z,96.65
2023-04-28T06:15:14.601Z,95.79
2023-04-28T06:16:14.574Z,95.70
2023-04-28T06:17:14.545Z,96.36
2023-04-28T06:18:14.551Z,95.89
2023-04-28T06:19:14.541Z,94.65
2023-04-28T06:20:14.566Z,95.08
2023-04-28T06:21:14.548Z,95.75
2023-04-28T06:22:14.557Z,95.75
2023-04-28T06:23:14.545Z,94.98
2023-04-28T06:24:14.589Z,94.98
2023-04-28T06:25:14.490Z,95.94
2023-04-28T06:26:16.241Z,95.27
2023-04-28T06:27:14.479Z,95.17
2023-04-28T06:28:14.488Z,96.60
2023-04-28T06:29:14.414Z,96.89
2023-04-28T06:30:14.472Z,95.75
2023-04-28T06:31:14.518Z,95.36
2023-04-28T06:32:14.391Z,95.94
2023-04-28T06:33:14.446Z,96.60
2023-04-28T06:34:14.704Z,95.94
2023-04-28T06:35:14.352Z,94.89
2023-04-28T06:36:14.384Z,94.32
2023-04-28T06:37:14.349Z,94.13
2023-04-28T06:38:14.396Z,93.46
2023-04-28T06:39:14.374Z,94.79
2023-04-28T06:40:14.321Z,95.46
2023-04-28T06:41:14.307Z,94.42
2023-04-28T06:42:14.316Z,95.36
2023-04-28T06:43:14.256Z,94.60
2023-04-28T06:44:14.583Z,95.27
2023-04-28T06:45:14.255Z,95.75
2023-04-28T06:46:14.513Z,94.03
2023-04-28T06:47:14.308Z,95.08
2023-04-28T06:48:14.305Z,94.60
2023-04-28T06:49:14.224Z,94.22
2023-04-28T06:50:14.211Z,93.18
2023-04-28T06:51:14.178Z,94.70
2023-04-28T06:52:14.181Z,94.89
2023-04-28T06:53:14.205Z,94.22
2023-04-28T06:54:14.301Z,94.60
2023-04-28T06:55:14.157Z,94.22
2023-04-28T06:56:14.146Z,93.94
2023-04-28T06:57:14.130Z,93.55
2023-04-28T06:58:14.173Z,93.46
2023-04-28T06:59:14.084Z,93.70
2023-04-28T07:00:14.110Z,93.41
2023-04-28T07:01:14.154Z,93.32
2023-04-28T07:02:14.141Z,93.46
2023-04-28T07:03:14.183Z,93.51
2023-04-28T07:04:14.296Z,93.98
2023-04-28T07:05:16.109Z,93.89
2023-04-28T07:06:14.048Z,94.17
2023-04-28T07:07:14.021Z,94.17
2023-04-28T07:08:14.003Z,93.89
2023-04-28T07:09:14.008Z,94.65
2023-04-28T07:10:14.011Z,93.98
2023-04-28T07:11:14.015Z,93.55
2023-04-28T07:12:14.004Z,94.79
2023-04-28T07:13:13.968Z,94.13
2023-04-28T07:14:14.020Z,95.89
2023-04-28T07:15:13.911Z,97.08
2023-04-28T07:16:13.970Z,95.27
2023-04-28T07:17:13.938Z,93.93
2023-04-28T07:18:13.959Z,93.65
2023-04-28T07:19:13.937Z,93.51
2023-04-28T07:20:13.888Z,94.27
2023-04-28T07:21:13.865Z,96.12
2023-04-28T07:22:13.860Z,97.17
2023-04-28T07:23:14.061Z,95.79
2023-04-28T07:24:14.183Z,97.27
2023-04-28T07:25:13.850Z,97.17
2023-04-28T07:26:14.809Z,97.46
2023-04-28T07:27:13.844Z,99.65
2023-04-28T07:28:13.809Z,99.46
2023-04-28T07:29:13.985Z,99.75
2023-04-28T07:30:26.637Z,99.99
2023-04-28T07:31:13.789Z,99.99
2023-04-28T07:32:13.891Z,99.99
2023-04-28T07:33:13.784Z,99.18
2023-04-28T07:34:14.128Z,99.18
2023-04-28T07:35:13.941Z,99.94
2023-04-28T07:36:13.682Z,99.46
2023-04-28T07:37:13.701Z,99.84
2023-04-28T07:38:13.676Z,99.99
2023-04-28T07:39:13.670Z,99.08
2023-04-28T07:40:13.711Z,99.37
2023-04-28T07:41:13.866Z,99.13
2023-04-28T07:42:13.661Z,99.99
2023-04-28T07:43:13.648Z,99.89
2023-04-28T07:44:13.690Z,99.89
2023-04-28T07:45:13.632Z,99.69
2023-04-28T07:46:13.769Z,99.99
2023-04-28T07:47:13.591Z,99.99
2023-04-28T07:48:13.638Z,99.99
2023-04-28T07:49:13.562Z,99.99
2023-04-28T07:50:13.567Z,99.99
2023-04-28T07:51:13.574Z,99.99
2023-04-28T07:52:13.538Z,99.99
2023-04-28T07:53:13.546Z,99.99
2023-04-28T07:54:13.547Z,99.99
2023-04-28T07:55:13.508Z,99.99
2023-04-28T07:56:13.483Z,99.99
2023-04-28T07:57:13.563Z,99.99
2023-04-28T07:58:13.504Z,99.99
2023-04-28T07:59:13.453Z,99.99
2023-04-28T08:00:13.457Z,99.99
2023-04-28T08:01:13.641Z,99.99
2023-04-28T08:02:13.566Z,99.99
2023-04-28T08:03:13.661Z,99.99
2023-04-28T08:04:13.864Z,99.99
2023-04-28T08:05:13.624Z,99.99
2023-04-28T08:06:13.391Z,99.99
2023-04-28T08:07:13.434Z,99.99
2023-04-28T08:08:13.376Z,99.99
2023-04-28T08:09:13.376Z,99.99
2023-04-28T08:10:13.357Z,99.99
2023-04-28T08:11:13.548Z,99.99
2023-04-28T08:12:13.358Z,99.99
2023-04-28T08:13:13.404Z,99.99
2023-04-28T08:14:13.397Z,99.99
2023-04-28T08:15:13.356Z,99.99
2023-04-28T08:16:13.324Z,99.99
2023-04-28T08:17:13.244Z,99.99
2023-04-28T08:18:13.267Z,99.99
2023-04-28T08:19:13.293Z,99.99
2023-04-28T08:20:13.219Z,99.99
2023-04-28T08:21:13.214Z,99.99
2023-04-28T08:22:13.246Z,99.99
2023-04-28T08:23:13.225Z,99.99
2023-04-28T08:24:13.239Z,99.99
2023-04-28T08:25:13.228Z,99.99
2023-04-28T08:26:13.228Z,99.99
2023-04-28T08:27:13.147Z,99.99
2023-04-28T08:28:13.165Z,99.99
2023-04-28T08:29:13.146Z,99.99
2023-04-28T08:30:13.224Z,99.99
2023-04-28T08:31:13.157Z,99.99
2023-04-28T08:32:13.112Z,99.99
2023-04-28T08:33:13.144Z,99.99
2023-04-28T08:34:15.165Z,99.99
2023-04-28T08:35:13.060Z,99.99
2023-04-28T08:36:13.070Z,99.99
2023-04-28T08:37:13.057Z,99.99
2023-04-28T08:38:13.022Z,99.99
2023-04-28T08:39:13.761Z,99.99
2023-04-28T08:40:13.079Z,99.99
2023-04-28T08:41:12.999Z,99.99
2023-04-28T08:42:13.029Z,99.99
2023-04-28T08:43:13.025Z,99.99
2023-04-28T08:44:13.004Z,99.99
2023-04-28T08:45:12.967Z,99.99
2023-04-28T08:46:12.981Z,99.99
2023-04-28T08:47:12.989Z,99.99
2023-04-28T08:48:12.974Z,99.99
2023-04-28T08:49:13.125Z,99.99
2023-04-28T08:50:12.946Z,99.99
2023-04-28T08:51:12.919Z,99.99
2023-04-28T08:52:12.939Z,99.99
2023-04-28T08:53:12.874Z,99.99
2023-04-28T08:54:25.341Z,99.99
2023-04-28T08:55:12.960Z,99.99
2023-04-28T08:56:12.844Z,99.99
2023-04-28T08:57:12.843Z,99.99
2023-04-28T08:58:12.848Z,99.99
2023-04-28T08:59:12.927Z,99.99
2023-04-28T09:00:12.830Z,99.99
2023-04-28T09:01:12.822Z,99.99
2023-04-28T09:02:13.005Z,99.99
2023-04-28T09:03:12.919Z,99.99
2023-04-28T09:04:14.699Z,99.99
2023-04-28T09:05:13.141Z,99.99
2023-04-28T09:06:12.853Z,99.99
2023-04-28T09:07:12.839Z,99.99
2023-04-28T09:08:12.762Z,99.99
2023-04-28T09:09:12.751Z,99.99
2023-04-28T09:10:12.683Z,99.99
2023-04-28T09:11:12.734Z,99.99
2023-04-28T09:12:12.688Z,99.99
2023-04-28T09:13:12.670Z,99.99
2023-04-28T09:14:12.675Z,99.99
2023-04-28T09:15:12.652Z,99.99
2023-04-28T09:16:12.726Z,99.99
2023-04-28T09:17:12.641Z,99.99
2023-04-28T09:18:12.737Z,99.99
2023-04-28T09:19:12.651Z,99.99
2023-04-28T09:20:12.571Z,99.99
2023-04-28T09:21:12.586Z,99.99
2023-04-28T09:22:24.719Z,99.99
2023-04-28T09:23:12.576Z,99.99
2023-04-28T09:24:12.564Z,99.99
2023-04-28T09:25:12.568Z,99.99
2023-04-28T09:26:12.580Z,99.99
2023-04-28T09:27:12.548Z,99.99
2023-04-28T09:28:12.546Z,99.99
2023-04-28T09:29:12.516Z,99.99
2023-04-28T09:30:12.500Z,99.99
2023-04-28T09:31:12.485Z,99.99
2023-04-28T09:32:12.608Z,99.99
2023-04-28T09:33:12.535Z,99.99
2023-04-28T09:34:12.486Z,99.99
2023-04-28T09:35:12.481Z,99.99
2023-04-28T09:36:12.417Z,99.99
2023-04-28T09:37:12.446Z,99.99
2023-04-28T09:38:12.391Z,99.99
2023-04-28T09:39:12.415Z,99.99
2023-04-28T09:40:12.414Z,99.99
2023-04-28T09:41:12.377Z,99.99
2023-04-28T09:42:12.372Z,99.99
2023-04-28T09:43:21.247Z,99.99
2023-04-28T09:44:12.334Z,99.99
2023-04-28T09:45:12.317Z,99.99
2023-04-28T09:46:12.418Z,99.99
2023-04-28T09:47:12.290Z,99.99
2023-04-28T09:48:12.351Z,99.99
2023-04-28T09:49:12.287Z,99.99
2023-04-28T09:50:12.293Z,99.99
2023-04-28T09:51:13.167Z,99.99
2023-04-28T09:52:12.309Z,99.99
2023-04-28T09:53:12.233Z,99.99
2023-04-28T09:54:12.228Z,99.99
2023-04-28T09:55:12.231Z,99.99
2023-04-28T09:56:12.198Z,99.99
2023-04-28T09:57:12.188Z,99.99
2023-04-28T09:58:12.197Z,99.99
2023-04-28T09:59:12.171Z,99.99
2023-04-28T10:00:12.190Z,99.99
2023-04-28T10:01:12.221Z,99.99
2023-04-28T10:02:35.834Z,99.99
2023-04-28T10:03:12.275Z,99.99
2023-04-28T10:04:12.262Z,99.99
2023-04-28T10:05:12.537Z,99.99
2023-04-28T10:06:12.128Z,99.99
2023-04-28T10:07:12.073Z,99.99
2023-04-28T10:08:12.104Z,99.99
2023-04-28T10:09:12.074Z,99.99
2023-04-28T10:10:12.048Z,99.99
2023-04-28T10:11:12.033Z,99.99
2023-04-28T10:12:12.024Z,99.99
2023-04-28T10:13:12.023Z,99.99
2023-04-28T10:14:12.022Z,99.99
2023-04-28T10:15:12.003Z,99.99
2023-04-28T10:16:11.991Z,99.99
2023-04-28T10:17:11.954Z,99.99
2023-04-28T10:18:11.983Z,99.99
2023-04-28T10:19:12.154Z,99.99
2023-04-28T10:20:11.933Z,99.99
2023-04-28T10:21:11.917Z,99.99
2023-04-28T10:22:11.965Z,99.99
2023-04-28T10:23:11.894Z,99.99
2023-04-28T10:24:12.084Z,99.99
2023-04-28T10:25:11.896Z,99.99
2023-04-28T10:26:11.881Z,99.99
2023-04-28T10:27:12.080Z,99.99
2023-04-28T10:28:11.855Z,99.99
2023-04-28T10:29:11.839Z,99.99
2023-04-28T10:30:22.828Z,99.99
2023-04-28T10:31:11.857Z,99.99
2023-04-28T10:32:11.809Z,99.99
2023-04-28T10:33:12.177Z,99.99
2023-04-28T10:34:11.984Z,99.99
2023-04-28T10:35:11.829Z,99.99
2023-04-28T10:36:11.765Z,99.99
2023-04-28T10:37:11.744Z,99.99
2023-04-28T10:38:11.792Z,99.99
2023-04-28T10:39:11.731Z,99.99
2023-04-28T10:40:11.977Z,99.99
2023-04-28T10:41:11.728Z,99.99
2023-04-28T10:42:11.801Z,99.99
2023-04-28T10:43:11.748Z,99.99
2023-04-28T10:44:11.728Z,99.99
2023-04-28T10:45:11.721Z,99.99
2023-04-28T10:46:11.747Z,99.99
2023-04-28T10:47:11.717Z,99.99
2023-04-28T10:48:11.646Z,99.99
2023-04-28T10:49:11.839Z,99.99
2023-04-28T10:50:11.675Z,99.99
2023-04-28T10:51:11.631Z,99.99
2023-04-28T10:52:11.652Z,99.99
2023-04-28T10:53:11.629Z,99.99
2023-04-28T10:54:11.653Z,99.99
2023-04-28T10:55:21.473Z,99.99
2023-04-28T10:56:11.595Z,99.99
2023-04-28T10:57:11.567Z,99.99
2023-04-28T10:58:11.540Z,99.99
2023-04-28T10:59:11.545Z,99.99
2023-04-28T11:00:11.533Z,99.99
2023-04-28T11:01:11.554Z,99.99
2023-04-28T11:02:11.619Z,99.99
2023-04-28T11:03:11.645Z,99.99
2023-04-28T11:04:11.834Z,99.99
2023-04-28T11:05:11.821Z,99.99
2023-04-28T11:06:11.489Z,99.99
2023-04-28T11:07:11.447Z,99.99
2023-04-28T11:08:11.438Z,99.99
2023-04-28T11:09:11.444Z,99.99
2023-04-28T11:10:11.458Z,99.99
2023-04-28T11:11:11.448Z,99.99
2023-04-28T11:12:11.414Z,99.99
2023-04-28T11:13:11.409Z,99.99
2023-04-28T11:14:11.379Z,99.99
2023-04-28T11:15:11.380Z,99.99
2023-04-28T11:16:11.411Z,99.99
2023-04-28T11:17:11.477Z,99.99
2023-04-28T11:18:11.553Z,99.99
2023-04-28T11:19:11.380Z,99.99
2023-04-28T11:20:11.386Z,99.99
2023-04-28T11:21:11.303Z,99.99
2023-04-28T11:22:11.289Z,99.99
2023-04-28T11:23:11.279Z,99.99
2023-04-28T11:24:11.296Z,99.99
2023-04-28T11:25:11.277Z,99.99
2023-04-28T11:26:11.307Z,99.99
2023-04-28T11:27:11.455Z,99.99
2023-04-28T11:28:11.269Z,99.99
2023-04-28T11:29:11.250Z,99.99
2023-04-28T11:30:11.248Z,99.99
2023-04-28T11:31:11.249Z,99.99
2023-04-28T11:32:11.335Z,99.99
2023-04-28T11:33:11.271Z,99.99
2023-04-28T11:34:11.371Z,99.99
2023-04-28T11:35:11.215Z,99.99
2023-04-28T11:36:11.188Z,99.99
2023-04-28T11:37:11.162Z,99.99
2023-04-28T11:38:11.164Z,99.99
2023-04-28T11:39:11.179Z,99.99
2023-04-28T11:40:11.133Z,99.99
2023-04-28T11:41:11.103Z,99.99
2023-04-28T11:42:11.161Z,99.99
2023-04-28T11:43:11.132Z,99.99
2023-04-28T11:44:11.066Z,99.99
2023-04-28T11:45:11.049Z,99.99
2023-04-28T11:46:11.076Z,99.99
2023-04-28T11:47:11.029Z,99.99
2023-04-28T11:48:11.036Z,99.99
2023-04-28T11:49:11.012Z,99.99
2023-04-28T11:50:10.993Z,99.99
2023-04-28T11:51:10.999Z,99.99
2023-04-28T11:52:11.035Z,99.99
2023-04-28T11:53:11.002Z,99.99
2023-04-28T11:54:11.008Z,99.99
2023-04-28T11:55:10.972Z,99.99
2023-04-28T11:56:10.958Z,99.99
2023-04-28T11:57:10.995Z,99.99
2023-04-28T11:58:11.065Z,99.99
2023-04-28T11:59:10.912Z,99.99
2023-04-28T12:00:10.909Z,99.99
2023-04-28T12:01:10.911Z,99.99
2023-04-28T12:02:10.922Z,99.99
2023-04-28T12:03:11.089Z,99.99
2023-04-28T12:04:10.935Z,99.99
2023-04-28T12:05:10.881Z,99.99
2023-04-28T12:06:10.887Z,99.99
2023-04-28T12:07:10.978Z,99.99
2023-04-28T12:08:10.827Z,99.99
2023-04-28T12:09:10.827Z,99.99
2023-04-28T12:10:10.805Z,99.99
2023-04-28T12:11:10.796Z,99.99
2023-04-28T12:12:10.837Z,99.99
2023-04-28T12:13:10.786Z,99.99
2023-04-28T12:14:10.822Z,99.99
2023-04-28T12:15:10.779Z,99.99
2023-04-28T12:16:10.808Z,99.99
2023-04-28T12:17:10.736Z,99.99
2023-04-28T12:18:11.020Z,99.99
2023-04-28T12:19:10.724Z,99.99
2023-04-28T12:20:10.722Z,99.99
2023-04-28T12:21:10.715Z,99.99
2023-04-28T12:22:10.698Z,99.99
2023-04-28T12:23:10.694Z,99.99
2023-04-28T12:24:10.690Z,99.99
2023-04-28T12:25:10.685Z,99.99
2023-04-28T12:26:10.692Z,99.99
2023-04-28T12:27:10.658Z,99.99
2023-04-28T12:28:10.686Z,99.99
2023-04-28T12:29:10.924Z,99.99
2023-04-28T12:30:10.809Z,99.99
2023-04-28T12:31:10.660Z,99.99
2023-04-28T12:32:10.607Z,99.99
2023-04-28T12:33:10.616Z,99.99
2023-04-28T12:34:10.588Z,99.99
2023-04-28T12:35:10.557Z,99.99
2023-04-28T12:36:10.564Z,99.99
2023-04-28T12:37:10.536Z,99.99
2023-04-28T12:38:10.550Z,99.99
2023-04-28T12:39:10.516Z,99.99
2023-04-28T12:40:10.518Z,99.99
2023-04-28T12:41:10.517Z,99.99
2023-04-28T12:42:10.758Z,99.99
2023-04-28T12:43:10.487Z,99.99
2023-04-28T12:44:10.468Z,99.99
2023-04-28T12:45:10.459Z,99.99
2023-04-28T12:46:10.498Z,99.99
2023-04-28T12:47:10.441Z,99.99
2023-04-28T12:48:10.497Z,99.99
2023-04-28T12:49:10.624Z,99.99
2023-04-28T12:50:10.433Z,99.99
2023-04-28T12:51:10.409Z,99.99
2023-04-28T12:52:10.414Z,99.99